sensor_id;sensor_type;location;lat;lon;timestamp;P1;durP1;ratioP1;P2;durP2;ratioP2
10120;SDS011;5100;45.176;5.714;2022-08-11T00:01:44;3.67;;;2.60;;
10120;SDS011;5100;45.176;5.714;2022-08-11T00:04:14;3.53;;;2.65;;
10120;SDS011;5100;45.176;5.714;2022-08-11T00:06:41;4.00;;;2.97;;
10120;SDS011;5100;45.176;5.714;2022-08-11T00:09:10;2.90;;;2.62;;
10120;SDS011;5100;45.176;5.714;2022-08-11T00:11:43;2.90;;;2.70;;
10120;SDS011;5100;45.176;5.714;2022-08-11T00:14:21;3.05;;;2.80;;
10120;SDS011;5100;45.176;5.714;2022-08-11T00:17:00;3.00;;;2.70;;
10120;SDS011;5100;45.176;5.714;2022-08-11T00:19:30;4.47;;;3.17;;
10120;SDS011;5100;45.176;5.714;2022-08-11T00:21:59;3.05;;;2.50;;
10120;SDS011;5100;45.176;5.714;2022-08-11T00:24:31;7.65;;;3.05;;
10120;SDS011;5100;45.176;5.714;2022-08-11T00:26:59;4.32;;;2.90;;
10120;SDS011;5100;45.176;5.714;2022-08-11T00:29:26;3.37;;;3.08;;
10120;SDS011;5100;45.176;5.714;2022-08-11T00:31:53;4.97;;;3.25;;
10120;SDS011;5100;45.176;5.714;2022-08-11T00:34:25;3.30;;;3.00;;
10120;SDS011;5100;45.176;5.714;2022-08-11T00:39:29;2.83;;;2.62;;
10120;SDS011;5100;45.176;5.714;2022-08-11T00:45:09;3.10;;;2.90;;
10120;SDS011;5100;45.176;5.714;2022-08-11T00:48:02;3.28;;;2.87;;
10120;SDS011;5100;45.176;5.714;2022-08-11T00:50:48;3.67;;;3.03;;
10120;SDS011;5100;45.176;5.714;2022-08-11T00:53:44;6.45;;;2.80;;
10120;SDS011;5100;45.176;5.714;2022-08-11T01:07:49;2.85;;;2.62;;
10120;SDS011;5100;45.176;5.714;2022-08-11T01:10:43;3.20;;;2.90;;
10120;SDS011;5100;45.176;5.714;2022-08-11T01:19:13;3.10;;;2.90;;
10120;SDS011;5100;45.176;5.714;2022-08-11T01:30:24;3.17;;;2.90;;
10120;SDS011;5100;45.176;5.714;2022-08-11T01:36:30;4.20;;;3.00;;
10120;SDS011;5100;45.176;5.714;2022-08-11T01:45:58;4.90;;;2.90;;
10120;SDS011;5100;45.176;5.714;2022-08-11T01:54:26;3.15;;;2.90;;
10120;SDS011;5100;45.176;5.714;2022-08-11T01:59:48;3.25;;;2.80;;
10120;SDS011;5100;45.176;5.714;2022-08-11T02:05:28;3.97;;;2.67;;
10120;SDS011;5100;45.176;5.714;2022-08-11T02:11:24;5.68;;;3.35;;
10120;SDS011;5100;45.176;5.714;2022-08-11T02:14:01;3.50;;;2.85;;
10120;SDS011;5100;45.176;5.714;2022-08-11T02:25:52;3.72;;;3.00;;
10120;SDS011;5100;45.176;5.714;2022-08-11T02:28:29;3.55;;;2.97;;
10120;SDS011;5100;45.176;5.714;2022-08-11T02:37:50;3.45;;;3.10;;
10120;SDS011;5100;45.176;5.714;2022-08-11T02:51:19;3.70;;;3.05;;
10120;SDS011;5100;45.176;5.714;2022-08-11T02:54:16;3.83;;;3.10;;
10120;SDS011;5100;45.176;5.714;2022-08-11T03:00:13;3.67;;;2.97;;
10120;SDS011;5100;45.176;5.714;2022-08-11T03:02:59;4.25;;;3.47;;
10120;SDS011;5100;45.176;5.714;2022-08-11T03:05:32;3.33;;;3.03;;
10120;SDS011;5100;45.176;5.714;2022-08-11T03:14:51;3.47;;;2.90;;
10120;SDS011;5100;45.176;5.714;2022-08-11T03:26:23;3.83;;;3.22;;
10120;SDS011;5100;45.176;5.714;2022-08-11T03:32:10;3.45;;;3.20;;
10120;SDS011;5100;45.176;5.714;2022-08-11T03:34:57;3.78;;;3.17;;
10120;SDS011;5100;45.176;5.714;2022-08-11T03:42:45;4.07;;;3.62;;
10120;SDS011;5100;45.176;5.714;2022-08-11T03:45:24;3.00;;;2.80;;
10120;SDS011;5100;45.176;5.714;2022-08-11T03:48:02;3.33;;;3.08;;
10120;SDS011;5100;45.176;5.714;2022-08-11T03:53:19;3.53;;;3.30;;
10120;SDS011;5100;45.176;5.714;2022-08-11T04:02:18;3.15;;;2.95;;
10120;SDS011;5100;45.176;5.714;2022-08-11T04:08:28;3.50;;;3.30;;
10120;SDS011;5100;45.176;5.714;2022-08-11T04:13:56;3.20;;;3.00;;
10120;SDS011;5100;45.176;5.714;2022-08-11T04:39:57;3.83;;;3.42;;
10120;SDS011;5100;45.176;5.714;2022-08-11T04:48:26;7.05;;;4.05;;
10120;SDS011;5100;45.176;5.714;2022-08-11T04:51:38;3.97;;;3.40;;
10120;SDS011;5100;45.176;5.714;2022-08-11T04:57:52;4.70;;;3.83;;
10120;SDS011;5100;45.176;5.714;2022-08-11T05:04:10;6.25;;;3.33;;
10120;SDS011;5100;45.176;5.714;2022-08-11T05:12:53;3.65;;;3.30;;
10120;SDS011;5100;45.176;5.714;2022-08-11T05:15:30;8.15;;;3.58;;
10120;SDS011;5100;45.176;5.714;2022-08-11T05:18:30;5.28;;;3.33;;
10120;SDS011;5100;45.176;5.714;2022-08-11T05:21:17;15.55;;;3.85;;
10120;SDS011;5100;45.176;5.714;2022-08-11T05:24:07;5.22;;;3.62;;
10120;SDS011;5100;45.176;5.714;2022-08-11T05:27:08;5.05;;;3.17;;
10120;SDS011;5100;45.176;5.714;2022-08-11T05:30:01;3.62;;;3.28;;
10120;SDS011;5100;45.176;5.714;2022-08-11T05:32:55;4.68;;;3.22;;
10120;SDS011;5100;45.176;5.714;2022-08-11T05:35:45;6.03;;;2.92;;
10120;SDS011;5100;45.176;5.714;2022-08-11T05:38:18;2.67;;;2.47;;
10120;SDS011;5100;45.176;5.714;2022-08-11T05:41:09;4.22;;;2.78;;
10120;SDS011;5100;45.176;5.714;2022-08-11T05:44:00;5.20;;;2.95;;
10120;SDS011;5100;45.176;5.714;2022-08-11T05:46:47;6.28;;;2.95;;
10120;SDS011;5100;45.176;5.714;2022-08-11T05:49:33;5.28;;;2.70;;
10120;SDS011;5100;45.176;5.714;2022-08-11T05:52:22;4.22;;;2.83;;
10120;SDS011;5100;45.176;5.714;2022-08-11T05:55:10;3.30;;;3.03;;
10120;SDS011;5100;45.176;5.714;2022-08-11T05:58:01;5.22;;;3.10;;
10120;SDS011;5100;45.176;5.714;2022-08-11T06:00:30;3.40;;;3.10;;
10120;SDS011;5100;45.176;5.714;2022-08-11T06:03:06;3.35;;;3.05;;
10120;SDS011;5100;45.176;5.714;2022-08-11T06:05:39;3.15;;;2.78;;
10120;SDS011;5100;45.176;5.714;2022-08-11T06:08:07;4.53;;;2.70;;
10120;SDS011;5100;45.176;5.714;2022-08-11T06:10:35;3.55;;;3.17;;
10120;SDS011;5100;45.176;5.714;2022-08-11T06:13:04;3.72;;;3.30;;
10120;SDS011;5100;45.176;5.714;2022-08-11T06:15:32;5.35;;;3.20;;
10120;SDS011;5100;45.176;5.714;2022-08-11T06:18:09;4.62;;;3.00;;
10120;SDS011;5100;45.176;5.714;2022-08-11T06:20:44;3.40;;;3.10;;
10120;SDS011;5100;45.176;5.714;2022-08-11T06:23:15;4.12;;;2.97;;
10120;SDS011;5100;45.176;5.714;2022-08-11T06:25:51;4.60;;;2.80;;
10120;SDS011;5100;45.176;5.714;2022-08-11T06:28:19;3.80;;;3.05;;
10120;SDS011;5100;45.176;5.714;2022-08-11T06:30:56;7.25;;;3.25;;
10120;SDS011;5100;45.176;5.714;2022-08-11T06:33:34;3.50;;;2.72;;
10120;SDS011;5100;45.176;5.714;2022-08-11T06:39:01;7.32;;;3.37;;
10120;SDS011;5100;45.176;5.714;2022-08-11T06:41:33;5.47;;;3.28;;
10120;SDS011;5100;45.176;5.714;2022-08-11T06:44:31;2.83;;;2.60;;
10120;SDS011;5100;45.176;5.714;2022-08-11T06:47:11;3.65;;;2.72;;
10120;SDS011;5100;45.176;5.714;2022-08-11T06:49:44;6.12;;;3.10;;
10120;SDS011;5100;45.176;5.714;2022-08-11T06:52:31;3.03;;;2.83;;
10120;SDS011;5100;45.176;5.714;2022-08-11T06:55:04;4.68;;;3.08;;
10120;SDS011;5100;45.176;5.714;2022-08-11T06:57:33;4.93;;;3.55;;
10120;SDS011;5100;45.176;5.714;2022-08-11T07:00:20;3.22;;;2.87;;
10120;SDS011;5100;45.176;5.714;2022-08-11T07:03:06;3.35;;;3.08;;
10120;SDS011;5100;45.176;5.714;2022-08-11T07:14:02;3.90;;;2.90;;
10120;SDS011;5100;45.176;5.714;2022-08-11T07:16:49;7.60;;;2.70;;
10120;SDS011;5100;45.176;5.714;2022-08-11T07:19:19;5.25;;;3.08;;
10120;SDS011;5100;45.176;5.714;2022-08-11T07:22:08;3.33;;;3.03;;
10120;SDS011;5100;45.176;5.714;2022-08-11T07:24:55;3.70;;;2.65;;
10120;SDS011;5100;45.176;5.714;2022-08-11T07:27:48;3.67;;;2.97;;
10120;SDS011;5100;45.176;5.714;2022-08-11T07:30:40;3.10;;;2.90;;
10120;SDS011;5100;45.176;5.714;2022-08-11T07:33:08;5.57;;;2.95;;
10120;SDS011;5100;45.176;5.714;2022-08-11T07:35:43;4.25;;;3.03;;
10120;SDS011;5100;45.176;5.714;2022-08-11T07:38:17;3.95;;;2.70;;
10120;SDS011;5100;45.176;5.714;2022-08-11T07:40:46;4.70;;;2.85;;
10120;SDS011;5100;45.176;5.714;2022-08-11T07:43:14;3.40;;;3.10;;
10120;SDS011;5100;45.176;5.714;2022-08-11T07:45:42;3.10;;;2.90;;
10120;SDS011;5100;45.176;5.714;2022-08-11T07:48:29;4.93;;;2.95;;
10120;SDS011;5100;45.176;5.714;2022-08-11T07:51:17;3.08;;;2.87;;
10120;SDS011;5100;45.176;5.714;2022-08-11T07:54:04;3.05;;;2.78;;
10120;SDS011;5100;45.176;5.714;2022-08-11T07:56:34;2.97;;;2.78;;
10120;SDS011;5100;45.176;5.714;2022-08-11T07:59:02;6.30;;;3.03;;
10120;SDS011;5100;45.176;5.714;2022-08-11T08:01:48;4.40;;;2.87;;
10120;SDS011;5100;45.176;5.714;2022-08-11T08:04:35;3.15;;;2.95;;
10120;SDS011;5100;45.176;5.714;2022-08-11T08:07:20;3.28;;;3.08;;
10120;SDS011;5100;45.176;5.714;2022-08-11T08:10:06;5.00;;;3.03;;
10120;SDS011;5100;45.176;5.714;2022-08-11T08:12:53;3.28;;;3.00;;
10120;SDS011;5100;45.176;5.714;2022-08-11T08:15:40;3.62;;;3.03;;
10120;SDS011;5100;45.176;5.714;2022-08-11T08:18:25;3.87;;;2.75;;
10120;SDS011;5100;45.176;5.714;2022-08-11T08:20:54;6.22;;;3.12;;
10120;SDS011;5100;45.176;5.714;2022-08-11T08:23:40;3.20;;;3.00;;
10120;SDS011;5100;45.176;5.714;2022-08-11T08:26:10;3.08;;;2.87;;
10120;SDS011;5100;45.176;5.714;2022-08-11T08:28:58;3.60;;;3.17;;
10120;SDS011;5100;45.176;5.714;2022-08-11T08:31:59;3.45;;;3.15;;
10120;SDS011;5100;45.176;5.714;2022-08-11T08:34:27;3.30;;;3.00;;
10120;SDS011;5100;45.176;5.714;2022-08-11T08:36:53;3.28;;;3.08;;
10120;SDS011;5100;45.176;5.714;2022-08-11T08:39:21;4.15;;;2.87;;
10120;SDS011;5100;45.176;5.714;2022-08-11T08:41:48;3.28;;;2.95;;
10120;SDS011;5100;45.176;5.714;2022-08-11T08:44:18;3.05;;;2.85;;
10120;SDS011;5100;45.176;5.714;2022-08-11T08:46:48;3.15;;;2.87;;
10120;SDS011;5100;45.176;5.714;2022-08-11T08:49:21;3.78;;;2.90;;
10120;SDS011;5100;45.176;5.714;2022-08-11T08:51:53;3.78;;;2.85;;
10120;SDS011;5100;45.176;5.714;2022-08-11T08:54:29;2.45;;;2.25;;
10120;SDS011;5100;45.176;5.714;2022-08-11T08:57:00;3.10;;;2.83;;
10120;SDS011;5100;45.176;5.714;2022-08-11T08:59:30;3.95;;;3.00;;
10120;SDS011;5100;45.176;5.714;2022-08-11T09:02:01;3.30;;;2.90;;
10120;SDS011;5100;45.176;5.714;2022-08-11T09:04:30;2.70;;;2.50;;
10120;SDS011;5100;45.176;5.714;2022-08-11T09:06:58;4.68;;;2.70;;
10120;SDS011;5100;45.176;5.714;2022-08-11T09:09:31;3.58;;;2.78;;
10120;SDS011;5100;45.176;5.714;2022-08-11T09:11:58;3.85;;;2.83;;
10120;SDS011;5100;45.176;5.714;2022-08-11T09:14:27;2.70;;;2.42;;
10120;SDS011;5100;45.176;5.714;2022-08-11T09:17:18;6.00;;;2.90;;
10120;SDS011;5100;45.176;5.714;2022-08-11T09:19:46;3.28;;;2.62;;
10120;SDS011;5100;45.176;5.714;2022-08-11T09:22:17;4.72;;;2.72;;
10120;SDS011;5100;45.176;5.714;2022-08-11T09:25:04;4.05;;;2.62;;
10120;SDS011;5100;45.176;5.714;2022-08-11T09:27:51;3.37;;;2.60;;
10120;SDS011;5100;45.176;5.714;2022-08-11T09:30:19;3.28;;;2.97;;
10120;SDS011;5100;45.176;5.714;2022-08-11T09:32:45;4.15;;;2.83;;
10120;SDS011;5100;45.176;5.714;2022-08-11T09:35:12;3.90;;;2.67;;
10120;SDS011;5100;45.176;5.714;2022-08-11T09:37:39;2.60;;;2.40;;
10120;SDS011;5100;45.176;5.714;2022-08-11T09:40:24;2.97;;;2.67;;
10120;SDS011;5100;45.176;5.714;2022-08-11T09:42:55;3.62;;;2.85;;
10120;SDS011;5100;45.176;5.714;2022-08-11T09:45:53;3.30;;;2.90;;
10120;SDS011;5100;45.176;5.714;2022-08-11T09:48:23;4.03;;;2.72;;
10120;SDS011;5100;45.176;5.714;2022-08-11T09:50:53;5.03;;;2.75;;
10120;SDS011;5100;45.176;5.714;2022-08-11T09:53:21;4.00;;;2.80;;
10120;SDS011;5100;45.176;5.714;2022-08-11T09:55:50;6.60;;;3.00;;
10120;SDS011;5100;45.176;5.714;2022-08-11T09:58:18;2.90;;;2.70;;
10120;SDS011;5100;45.176;5.714;2022-08-11T10:00:46;3.58;;;2.90;;
10120;SDS011;5100;45.176;5.714;2022-08-11T10:03:16;3.22;;;2.83;;
10120;SDS011;5100;45.176;5.714;2022-08-11T10:05:47;4.28;;;2.75;;
10120;SDS011;5100;45.176;5.714;2022-08-11T10:08:59;5.75;;;3.25;;
10120;SDS011;5100;45.176;5.714;2022-08-11T10:11:27;4.53;;;2.92;;
10120;SDS011;5100;45.176;5.714;2022-08-11T10:13:54;5.55;;;3.83;;
10120;SDS011;5100;45.176;5.714;2022-08-11T10:16:40;5.93;;;2.90;;
10120;SDS011;5100;45.176;5.714;2022-08-11T10:19:07;4.22;;;3.22;;
10120;SDS011;5100;45.176;5.714;2022-08-11T10:24:04;3.20;;;2.90;;
10120;SDS011;5100;45.176;5.714;2022-08-11T10:26:50;4.57;;;3.05;;
10120;SDS011;5100;45.176;5.714;2022-08-11T10:32:12;3.12;;;2.80;;
10120;SDS011;5100;45.176;5.714;2022-08-11T10:35:02;3.15;;;2.85;;
10120;SDS011;5100;45.176;5.714;2022-08-11T10:37:31;3.20;;;3.00;;
10120;SDS011;5100;45.176;5.714;2022-08-11T10:40:02;3.12;;;2.80;;
10120;SDS011;5100;45.176;5.714;2022-08-11T10:42:31;3.28;;;2.97;;
10120;SDS011;5100;45.176;5.714;2022-08-11T10:45:16;4.37;;;3.28;;
10120;SDS011;5100;45.176;5.714;2022-08-11T10:48:03;3.47;;;3.17;;
10120;SDS011;5100;45.176;5.714;2022-08-11T10:50:32;3.83;;;3.30;;
10120;SDS011;5100;45.176;5.714;2022-08-11T10:53:18;3.58;;;3.20;;
10120;SDS011;5100;45.176;5.714;2022-08-11T10:56:04;3.75;;;3.00;;
10120;SDS011;5100;45.176;5.714;2022-08-11T10:58:50;3.15;;;2.95;;
10120;SDS011;5100;45.176;5.714;2022-08-11T11:01:32;3.37;;;2.80;;
10120;SDS011;5100;45.176;5.714;2022-08-11T11:04:01;3.37;;;2.80;;
10120;SDS011;5100;45.176;5.714;2022-08-11T11:06:43;3.50;;;3.20;;
10120;SDS011;5100;45.176;5.714;2022-08-11T11:09:31;5.15;;;3.15;;
10120;SDS011;5100;45.176;5.714;2022-08-11T11:11:59;4.62;;;3.37;;
10120;SDS011;5100;45.176;5.714;2022-08-11T11:14:50;3.47;;;3.22;;
10120;SDS011;5100;45.176;5.714;2022-08-11T11:17:40;3.65;;;3.17;;
10120;SDS011;5100;45.176;5.714;2022-08-11T11:20:32;3.22;;;3.03;;
10120;SDS011;5100;45.176;5.714;2022-08-11T11:23:14;3.10;;;2.80;;
10120;SDS011;5100;45.176;5.714;2022-08-11T11:31:40;4.03;;;3.12;;
10120;SDS011;5100;45.176;5.714;2022-08-11T11:36:57;3.58;;;3.17;;
10120;SDS011;5100;45.176;5.714;2022-08-11T11:39:27;5.93;;;3.65;;
10120;SDS011;5100;45.176;5.714;2022-08-11T11:41:56;4.82;;;2.70;;
10120;SDS011;5100;45.176;5.714;2022-08-11T11:44:27;4.45;;;3.55;;
10120;SDS011;5100;45.176;5.714;2022-08-11T11:46:53;4.03;;;3.03;;
10120;SDS011;5100;45.176;5.714;2022-08-11T11:49:21;3.05;;;2.83;;
10120;SDS011;5100;45.176;5.714;2022-08-11T11:51:51;3.55;;;2.80;;
10120;SDS011;5100;45.176;5.714;2022-08-11T11:54:22;3.53;;;3.08;;
10120;SDS011;5100;45.176;5.714;2022-08-11T11:56:51;4.32;;;2.85;;
10120;SDS011;5100;45.176;5.714;2022-08-11T11:59:19;6.12;;;2.80;;
10120;SDS011;5100;45.176;5.714;2022-08-11T12:02:07;3.40;;;2.78;;
10120;SDS011;5100;45.176;5.714;2022-08-11T12:04:35;5.15;;;3.12;;
10120;SDS011;5100;45.176;5.714;2022-08-11T12:07:02;3.90;;;3.12;;
10120;SDS011;5100;45.176;5.714;2022-08-11T12:09:52;4.07;;;3.12;;
10120;SDS011;5100;45.176;5.714;2022-08-11T12:12:19;3.00;;;2.80;;
10120;SDS011;5100;45.176;5.714;2022-08-11T12:15:06;8.70;;;3.03;;
10120;SDS011;5100;45.176;5.714;2022-08-11T12:17:33;10.85;;;3.03;;
10120;SDS011;5100;45.176;5.714;2022-08-11T12:20:01;4.57;;;2.78;;
10120;SDS011;5100;45.176;5.714;2022-08-11T12:22:29;3.08;;;2.40;;
10120;SDS011;5100;45.176;5.714;2022-08-11T12:25:14;2.67;;;2.42;;
10120;SDS011;5100;45.176;5.714;2022-08-11T12:28:01;2.60;;;2.40;;
10120;SDS011;5100;45.176;5.714;2022-08-11T12:30:28;7.82;;;2.80;;
10120;SDS011;5100;45.176;5.714;2022-08-11T12:32:54;2.87;;;2.67;;
10120;SDS011;5100;45.176;5.714;2022-08-11T12:35:22;6.00;;;2.70;;
10120;SDS011;5100;45.176;5.714;2022-08-11T12:37:50;4.03;;;2.50;;
10120;SDS011;5100;45.176;5.714;2022-08-11T12:40:27;4.57;;;2.95;;
10120;SDS011;5100;45.176;5.714;2022-08-11T12:43:17;2.95;;;2.75;;
10120;SDS011;5100;45.176;5.714;2022-08-11T12:46:06;4.12;;;2.60;;
10120;SDS011;5100;45.176;5.714;2022-08-11T12:48:48;3.65;;;2.80;;
10120;SDS011;5100;45.176;5.714;2022-08-11T12:51:49;3.00;;;2.70;;
10120;SDS011;5100;45.176;5.714;2022-08-11T12:56:54;3.22;;;2.92;;
10120;SDS011;5100;45.176;5.714;2022-08-11T12:59:43;4.50;;;2.78;;
10120;SDS011;5100;45.176;5.714;2022-08-11T13:02:29;4.18;;;2.60;;
10120;SDS011;5100;45.176;5.714;2022-08-11T13:05:15;2.60;;;2.40;;
10120;SDS011;5100;45.176;5.714;2022-08-11T13:07:43;3.70;;;2.72;;
10120;SDS011;5100;45.176;5.714;2022-08-11T13:10:12;4.07;;;2.45;;
10120;SDS011;5100;45.176;5.714;2022-08-11T13:13:02;5.05;;;2.92;;
10120;SDS011;5100;45.176;5.714;2022-08-11T13:15:31;4.18;;;2.70;;
10120;SDS011;5100;45.176;5.714;2022-08-11T13:17:58;3.05;;;2.60;;
10120;SDS011;5100;45.176;5.714;2022-08-11T13:20:26;2.22;;;2.12;;
10120;SDS011;5100;45.176;5.714;2022-08-11T13:22:54;2.83;;;2.58;;
10120;SDS011;5100;45.176;5.714;2022-08-11T13:25:23;3.00;;;2.60;;
10120;SDS011;5100;45.176;5.714;2022-08-11T13:27:54;7.25;;;2.62;;
10120;SDS011;5100;45.176;5.714;2022-08-11T13:30:22;2.50;;;2.30;;
10120;SDS011;5100;45.176;5.714;2022-08-11T13:33:10;4.87;;;2.75;;
10120;SDS011;5100;45.176;5.714;2022-08-11T13:35:37;7.30;;;2.10;;
10120;SDS011;5100;45.176;5.714;2022-08-11T13:38:04;2.60;;;2.40;;
10120;SDS011;5100;45.176;5.714;2022-08-11T13:40:32;2.20;;;2.00;;
10120;SDS011;5100;45.176;5.714;2022-08-11T13:43:00;4.05;;;2.37;;
10120;SDS011;5100;45.176;5.714;2022-08-11T13:45:26;2.53;;;2.30;;
10120;SDS011;5100;45.176;5.714;2022-08-11T13:47:56;2.50;;;2.30;;
10120;SDS011;5100;45.176;5.714;2022-08-11T13:50:25;3.85;;;2.10;;
10120;SDS011;5100;45.176;5.714;2022-08-11T13:53:11;2.97;;;2.25;;
10120;SDS011;5100;45.176;5.714;2022-08-11T13:55:41;2.20;;;2.00;;
10120;SDS011;5100;45.176;5.714;2022-08-11T13:58:11;2.92;;;2.17;;
10120;SDS011;5100;45.176;5.714;2022-08-11T14:00:39;5.53;;;2.30;;
10120;SDS011;5100;45.176;5.714;2022-08-11T14:03:10;4.47;;;2.08;;
10120;SDS011;5100;45.176;5.714;2022-08-11T14:05:38;3.85;;;2.37;;
10120;SDS011;5100;45.176;5.714;2022-08-11T14:08:10;2.20;;;2.00;;
10120;SDS011;5100;45.176;5.714;2022-08-11T14:10:40;1.80;;;1.70;;
10120;SDS011;5100;45.176;5.714;2022-08-11T14:13:09;2.33;;;2.15;;
10120;SDS011;5100;45.176;5.714;2022-08-11T14:16:00;2.85;;;2.00;;
10120;SDS011;5100;45.176;5.714;2022-08-11T14:18:31;5.15;;;2.35;;
10120;SDS011;5100;45.176;5.714;2022-08-11T14:21:01;2.22;;;2.00;;
10120;SDS011;5100;45.176;5.714;2022-08-11T14:23:49;2.28;;;2.08;;
10120;SDS011;5100;45.176;5.714;2022-08-11T14:26:20;2.58;;;1.95;;
10120;SDS011;5100;45.176;5.714;2022-08-11T14:28:59;2.25;;;2.05;;
10120;SDS011;5100;45.176;5.714;2022-08-11T14:31:30;3.33;;;1.60;;
10120;SDS011;5100;45.176;5.714;2022-08-11T14:34:00;1.80;;;1.70;;
10120;SDS011;5100;45.176;5.714;2022-08-11T14:36:29;5.32;;;1.95;;
10120;SDS011;5100;45.176;5.714;2022-08-11T14:39:00;3.75;;;1.98;;
10120;SDS011;5100;45.176;5.714;2022-08-11T14:41:30;4.53;;;2.10;;
10120;SDS011;5100;45.176;5.714;2022-08-11T14:44:16;2.62;;;1.62;;
10120;SDS011;5100;45.176;5.714;2022-08-11T14:47:01;2.05;;;1.73;;
10120;SDS011;5100;45.176;5.714;2022-08-11T14:49:32;1.83;;;1.73;;
10120;SDS011;5100;45.176;5.714;2022-08-11T14:52:01;2.05;;;1.80;;
10120;SDS011;5100;45.176;5.714;2022-08-11T14:54:31;2.55;;;1.80;;
10120;SDS011;5100;45.176;5.714;2022-08-11T14:57:17;1.80;;;1.70;;
10120;SDS011;5100;45.176;5.714;2022-08-11T14:59:46;4.87;;;1.73;;
10120;SDS011;5100;45.176;5.714;2022-08-11T15:02:14;2.17;;;2.00;;
10120;SDS011;5100;45.176;5.714;2022-08-11T15:05:03;1.67;;;1.58;;
10120;SDS011;5100;45.176;5.714;2022-08-11T15:07:30;2.15;;;2.00;;
10120;SDS011;5100;45.176;5.714;2022-08-11T15:10:02;4.18;;;1.80;;
10120;SDS011;5100;45.176;5.714;2022-08-11T15:12:35;2.70;;;2.00;;
10120;SDS011;5100;45.176;5.714;2022-08-11T15:15:05;1.92;;;1.62;;
10120;SDS011;5100;45.176;5.714;2022-08-11T15:17:52;2.75;;;1.70;;
10120;SDS011;5100;45.176;5.714;2022-08-11T15:20:19;2.08;;;1.87;;
10120;SDS011;5100;45.176;5.714;2022-08-11T15:23:07;1.92;;;1.70;;
10120;SDS011;5100;45.176;5.714;2022-08-11T15:26:00;2.20;;;1.80;;
10120;SDS011;5100;45.176;5.714;2022-08-11T15:28:32;5.05;;;1.95;;
10120;SDS011;5100;45.176;5.714;2022-08-11T15:31:20;6.87;;;1.77;;
10120;SDS011;5100;45.176;5.714;2022-08-11T15:33:53;1.87;;;1.77;;
10120;SDS011;5100;45.176;5.714;2022-08-11T15:36:44;3.70;;;1.70;;
10120;SDS011;5100;45.176;5.714;2022-08-11T15:39:35;3.00;;;2.00;;
10120;SDS011;5100;45.176;5.714;2022-08-11T15:42:30;2.28;;;2.17;;
10120;SDS011;5100;45.176;5.714;2022-08-11T15:45:21;3.78;;;2.00;;
10120;SDS011;5100;45.176;5.714;2022-08-11T15:48:08;2.45;;;2.28;;
10120;SDS011;5100;45.176;5.714;2022-08-11T15:50:38;2.40;;;2.20;;
10120;SDS011;5100;45.176;5.714;2022-08-11T15:53:12;3.03;;;2.03;;
10120;SDS011;5100;45.176;5.714;2022-08-11T15:55:47;2.08;;;1.98;;
10120;SDS011;5100;45.176;5.714;2022-08-11T15:58:14;2.55;;;2.22;;
10120;SDS011;5100;45.176;5.714;2022-08-11T16:01:03;2.30;;;2.10;;
10120;SDS011;5100;45.176;5.714;2022-08-11T16:03:54;2.28;;;1.95;;
10120;SDS011;5100;45.176;5.714;2022-08-11T16:06:44;2.55;;;2.00;;
10120;SDS011;5100;45.176;5.714;2022-08-11T16:09:13;2.20;;;2.10;;
10120;SDS011;5100;45.176;5.714;2022-08-11T16:11:42;2.58;;;2.10;;
10120;SDS011;5100;45.176;5.714;2022-08-11T16:14:10;2.12;;;1.98;;
10120;SDS011;5100;45.176;5.714;2022-08-11T16:16:56;3.05;;;2.20;;
10120;SDS011;5100;45.176;5.714;2022-08-11T16:19:25;3.62;;;1.90;;
10120;SDS011;5100;45.176;5.714;2022-08-11T16:22:00;2.72;;;2.03;;
10120;SDS011;5100;45.176;5.714;2022-08-11T16:24:32;2.42;;;2.33;;
10120;SDS011;5100;45.176;5.714;2022-08-11T16:27:02;3.70;;;2.25;;
10120;SDS011;5100;45.176;5.714;2022-08-11T16:29:31;2.72;;;2.10;;
10120;SDS011;5100;45.176;5.714;2022-08-11T16:32:03;2.10;;;2.00;;
10120;SDS011;5100;45.176;5.714;2022-08-11T16:34:44;2.53;;;2.28;;
10120;SDS011;5100;45.176;5.714;2022-08-11T16:37:34;2.33;;;2.12;;
10120;SDS011;5100;45.176;5.714;2022-08-11T16:40:20;2.15;;;2.05;;
10120;SDS011;5100;45.176;5.714;2022-08-11T16:42:49;2.65;;;2.15;;
10120;SDS011;5100;45.176;5.714;2022-08-11T16:45:37;3.35;;;1.90;;
10120;SDS011;5100;45.176;5.714;2022-08-11T16:48:25;2.50;;;2.28;;
10120;SDS011;5100;45.176;5.714;2022-08-11T16:50:55;2.60;;;2.30;;
10120;SDS011;5100;45.176;5.714;2022-08-11T16:53:24;5.93;;;2.78;;
10120;SDS011;5100;45.176;5.714;2022-08-11T16:55:55;2.22;;;2.12;;
10120;SDS011;5100;45.176;5.714;2022-08-11T16:58:29;2.25;;;2.05;;
10120;SDS011;5100;45.176;5.714;2022-08-11T17:01:15;2.97;;;2.22;;
10120;SDS011;5100;45.176;5.714;2022-08-11T17:03:50;2.37;;;2.20;;
10120;SDS011;5100;45.176;5.714;2022-08-11T17:06:40;4.03;;;2.40;;
10120;SDS011;5100;45.176;5.714;2022-08-11T17:09:29;4.32;;;2.33;;
10120;SDS011;5100;45.176;5.714;2022-08-11T17:12:18;2.25;;;2.15;;
10120;SDS011;5100;45.176;5.714;2022-08-11T17:15:08;2.53;;;2.20;;
10120;SDS011;5100;45.176;5.714;2022-08-11T17:18:02;3.25;;;2.58;;
10120;SDS011;5100;45.176;5.714;2022-08-11T17:20:31;5.12;;;2.00;;
10120;SDS011;5100;45.176;5.714;2022-08-11T17:22:59;2.20;;;2.08;;
10120;SDS011;5100;45.176;5.714;2022-08-11T17:25:47;5.68;;;2.72;;
10120;SDS011;5100;45.176;5.714;2022-08-11T17:28:15;5.87;;;2.50;;
10120;SDS011;5100;45.176;5.714;2022-08-11T17:30:43;2.45;;;2.25;;
10120;SDS011;5100;45.176;5.714;2022-08-11T17:33:30;2.60;;;2.40;;
10120;SDS011;5100;45.176;5.714;2022-08-11T17:36:16;2.80;;;2.60;;
10120;SDS011;5100;45.176;5.714;2022-08-11T17:38:44;3.78;;;2.25;;
10120;SDS011;5100;45.176;5.714;2022-08-11T17:41:12;3.08;;;2.87;;
10120;SDS011;5100;45.176;5.714;2022-08-11T17:44:00;3.20;;;2.50;;
10120;SDS011;5100;45.176;5.714;2022-08-11T17:46:46;2.60;;;2.40;;
10120;SDS011;5100;45.176;5.714;2022-08-11T17:49:34;2.62;;;2.42;;
10120;SDS011;5100;45.176;5.714;2022-08-11T17:52:03;2.80;;;2.60;;
10120;SDS011;5100;45.176;5.714;2022-08-11T17:54:50;3.17;;;2.58;;
10120;SDS011;5100;45.176;5.714;2022-08-11T17:57:37;3.17;;;2.50;;
10120;SDS011;5100;45.176;5.714;2022-08-11T18:00:24;3.60;;;2.47;;
10120;SDS011;5100;45.176;5.714;2022-08-11T18:02:52;2.92;;;2.65;;
10120;SDS011;5100;45.176;5.714;2022-08-11T18:05:41;2.80;;;2.60;;
10120;SDS011;5100;45.176;5.714;2022-08-11T18:08:10;3.62;;;2.65;;
10120;SDS011;5100;45.176;5.714;2022-08-11T18:10:56;2.65;;;2.45;;
10120;SDS011;5100;45.176;5.714;2022-08-11T18:13:44;4.28;;;2.45;;
10120;SDS011;5100;45.176;5.714;2022-08-11T18:16:30;3.65;;;2.33;;
10120;SDS011;5100;45.176;5.714;2022-08-11T18:19:15;3.28;;;3.00;;
10120;SDS011;5100;45.176;5.714;2022-08-11T18:22:04;2.90;;;2.70;;
10120;SDS011;5100;45.176;5.714;2022-08-11T18:25:06;3.20;;;2.70;;
10120;SDS011;5100;45.176;5.714;2022-08-11T18:27:56;2.75;;;2.60;;
10120;SDS011;5100;45.176;5.714;2022-08-11T18:30:44;5.85;;;3.20;;
10120;SDS011;5100;45.176;5.714;2022-08-11T18:33:36;2.40;;;2.25;;
10120;SDS011;5100;45.176;5.714;2022-08-11T18:36:33;4.90;;;2.62;;
10120;SDS011;5100;45.176;5.714;2022-08-11T18:39:21;4.95;;;2.80;;
10120;SDS011;5100;45.176;5.714;2022-08-11T18:42:11;4.20;;;2.80;;
10120;SDS011;5100;45.176;5.714;2022-08-11T18:44:59;4.18;;;2.87;;
10120;SDS011;5100;45.176;5.714;2022-08-11T18:47:56;3.33;;;2.92;;
10120;SDS011;5100;45.176;5.714;2022-08-11T18:50:45;4.40;;;2.60;;
10120;SDS011;5100;45.176;5.714;2022-08-11T18:53:31;2.65;;;2.50;;
10120;SDS011;5100;45.176;5.714;2022-08-11T18:56:20;4.10;;;2.78;;
10120;SDS011;5100;45.176;5.714;2022-08-11T18:59:09;2.70;;;2.50;;
10120;SDS011;5100;45.176;5.714;2022-08-11T19:01:55;2.62;;;2.42;;
10120;SDS011;5100;45.176;5.714;2022-08-11T19:04:42;2.90;;;2.70;;
10120;SDS011;5100;45.176;5.714;2022-08-11T19:07:28;3.47;;;2.70;;
10120;SDS011;5100;45.176;5.714;2022-08-11T19:10:15;2.70;;;2.60;;
10120;SDS011;5100;45.176;5.714;2022-08-11T19:13:02;2.65;;;2.45;;
10120;SDS011;5100;45.176;5.714;2022-08-11T19:15:52;2.53;;;2.33;;
10120;SDS011;5100;45.176;5.714;2022-08-11T19:18:39;5.82;;;2.53;;
10120;SDS011;5100;45.176;5.714;2022-08-11T19:21:27;2.70;;;2.50;;
10120;SDS011;5100;45.176;5.714;2022-08-11T19:24:14;2.85;;;2.65;;